West Newton, PA

9:48 AM EDT on October 23, 2014 (GMT -0400)
Pittsburgh International | Change Station
CLOSE
Current Station
Airport
Location: Pittsburgh,
Elevation: 1201 ft
Nearby Weather Stations

Elev 1201 ft 40.48 °N, 80.21 °W | Updated 6 minutes ago

Overcast
Overcast
48 °F
Feels Like 48 °F
N
13
Wind Variable Wind from NW

Today
High -- | Low -- °F
--% Chance of Precip.
Yesterday
High -- | Low -- °F
Precip. -- in
7:38 AM 6:27 PM
Waning Crescent, 0% visible
Pressure 30.14 in
Visibility 10.0 miles
Clouds Scattered Clouds 1500 ft
Dew Point 43 °F
Humidity 83%
Rainfall 0.00 in
Snow Depth Not available.
UV 1 out of 12
Pollen 1.10 out of 12
Air Quality Not available.
Flu Activity Sporadic
SPECI KPIT 231342Z 31011KT 10SM SCT015 09/06 A3014 RMK AO2 T00890061

More Conditions Fewer Conditions

Pressure 30.14 in
Visibility 10.0 miles
Clouds Scattered Clouds 1500 ft
Dew Point 43 °F
Humidity 83%
Rainfall 0.00 in
Snow Depth Not available.
UV 1 out of 12
Pollen 1.10 out of 12
Air Quality Not available.
Flu Activity Sporadic
SPECI KPIT 231342Z 31011KT 10SM SCT015 09/06 A3014 RMK AO2 T00890061

More Conditions Fewer Conditions

10-Day Weather Forecast

Almanac

Astronomy

Oct. 23, 2014 Rise Set
Actual Time 7:38 AM EDT 6:27 PM EDT
Civil Twilight 7:10 AM EDT 6:55 PM EDT
Nautical Twilight 6:38 AM EDT 7:26 PM EDT
Astronomical Twilight 6:07 AM EDT 7:58 PM EDT
Moon 7:16 AM EDT 6:28 PM EDT
Length of Visible Light 11h 44m
Length of Day
10h 49m
Tomorrow will be 2m 28s shorter.
Waning Crescent, 0% of the Moon is Illuminated
Today
Waning Crescent
Oct 23
New
Oct 30
First Quarter
Nov 6
Full
Nov 14
Last Quarter

Today's Extremes

State Highs State Lows

Community

WunderPhotos

Upload Photos

1,764,238 photos uploaded!

Nearby

Snow Depth

Station Depth Elevation
No new snow has been reported.

Earthquake Activity

City Distance Mag. Time & Date
No recent earthquake activity has been reported nearby.
Minimum magnitude displayed is 2.5.

Coastal Water Temperatures

Place Temperature
No Stations Reporting

Nearby Weather Stations